createdAt,value
2022-08-08T00:02:34.861Z,20.8
2022-08-08T00:06:38.649Z,20.7
2022-08-08T00:12:11.490Z,20.7
2022-08-08T00:16:46.202Z,20.6
2022-08-08T00:21:52.169Z,20.6
2022-08-08T00:26:57.742Z,20.6
2022-08-08T00:32:37.806Z,20.5
2022-08-08T00:38:03.353Z,20.5
2022-08-08T00:42:38.183Z,20.5
2022-08-08T00:48:01.832Z,20.5
2022-08-08T00:52:48.609Z,20.6
2022-08-08T00:57:38.316Z,20.6
2022-08-08T01:04:06.172Z,20.6
2022-08-08T01:08:01.121Z,20.6
2022-08-08T01:12:47.262Z,20.6
2022-08-08T01:18:03.395Z,20.6
2022-08-08T01:22:58.433Z,20.6
2022-08-08T01:28:03.316Z,20.6
2022-08-08T01:33:43.297Z,20.6
2022-08-08T01:38:16.021Z,20.5
2022-08-08T01:43:19.589Z,20.5
2022-08-08T01:48:36.149Z,20.6
2022-08-08T01:56:34.269Z,20.6
2022-08-08T01:58:50.888Z,20.6
2022-08-08T02:03:59.865Z,20.6
2022-08-08T02:08:49.285Z,20.6
2022-08-08T02:13:56.990Z,20.5
2022-08-08T02:19:10.203Z,20.5
2022-08-08T02:24:06.350Z,20.4
2022-08-08T02:29:20.694Z,20.4
2022-08-08T02:34:34.553Z,20.4
2022-08-08T02:40:01.616Z,20.2
2022-08-08T02:45:00.442Z,20.1
2022-08-08T02:49:53.001Z,20.1
2022-08-08T02:54:29.803Z,20.1
2022-08-08T03:00:33.457Z,20
2022-08-08T03:05:11.771Z,20
2022-08-08T03:09:35.059Z,19.9
2022-08-08T03:16:07.098Z,19.9
2022-08-08T03:20:32.931Z,19.9
2022-08-08T03:25:38.166Z,19.7
2022-08-08T03:30:41.343Z,19.7
2022-08-08T03:35:51.209Z,19.6
2022-08-08T03:40:53.873Z,19.6
2022-08-08T03:46:10.999Z,19.9
2022-08-08T03:51:05.309Z,20.1
2022-08-08T03:56:32.552Z,20.3
2022-08-08T04:02:31.863Z,20.4
2022-08-08T04:06:21.460Z,20.6
2022-08-08T04:11:27.312Z,20.8
2022-08-08T04:16:42.767Z,20.7
2022-08-08T04:21:46.833Z,20.8
2022-08-08T04:27:00.519Z,20.8
2022-08-08T04:32:02.196Z,20.9
2022-08-08T04:36:49.084Z,20.8
2022-08-08T04:41:57.859Z,20.9
2022-08-08T04:47:03.105Z,20.9
2022-08-08T04:52:06.575Z,21
2022-08-08T04:57:10.150Z,21.1
2022-08-08T05:02:22.624Z,21.1
2022-08-08T05:07:17.245Z,21.2
2022-08-08T05:13:00.514Z,21.3
2022-08-08T05:17:24.786Z,21.3
2022-08-08T05:22:30.877Z,21.4
2022-08-08T05:27:44.318Z,21.4
2022-08-08T05:32:39.470Z,21.3
2022-08-08T05:37:55.873Z,21.5
2022-08-08T05:42:52.955Z,21.7
2022-08-08T05:48:10.296Z,21.8
2022-08-08T05:52:56.258Z,21.8
2022-08-08T05:58:25.725Z,22.1
2022-08-08T06:03:30.808Z,22.5
2022-08-08T06:08:36.140Z,23.2
2022-08-08T06:13:26.479Z,23.7
2022-08-08T06:18:31.144Z,24.7
2022-08-08T06:24:04.921Z,25.1
2022-08-08T06:34:29.573Z,25.6
2022-08-08T06:38:45.458Z,26.1
2022-08-08T06:44:01.914Z,26.2
2022-08-08T06:48:57.255Z,26.7
2022-08-08T06:54:02.808Z,27.4
2022-08-08T06:59:15.687Z,27.2
2022-08-08T07:04:52.049Z,27.4
2022-08-08T07:09:27.011Z,28.1
2022-08-08T07:14:22.824Z,29.3
2022-08-08T07:19:31.762Z,29.1
2022-08-08T07:24:34.243Z,29.1
2022-08-08T07:30:18.236Z,28.2
2022-08-08T07:35:01.548Z,27.7
2022-08-08T07:40:01.902Z,28
2022-08-08T07:44:47.056Z,28.6
2022-08-08T07:49:53.763Z,29.7
2022-08-08T07:55:01.337Z,30.9
2022-08-08T08:00:05.345Z,31.3
2022-08-08T08:05:17.244Z,32.1
2022-08-08T08:10:14.423Z,32.7
2022-08-08T08:15:18.244Z,31.7
2022-08-08T08:20:32.381Z,30.9
2022-08-08T08:25:58.571Z,31.6
2022-08-08T08:30:46.832Z,32.5
2022-08-08T08:36:28.787Z,31.3
2022-08-08T08:40:53.906Z,31.4
2022-08-08T08:46:05.562Z,31.6
2022-08-08T08:50:59.355Z,32
2022-08-08T08:56:05.395Z,32.5
2022-08-08T09:01:15.632Z,33.3
2022-08-08T09:06:34.676Z,34.7
2022-08-08T09:11:34.842Z,36.2
2022-08-08T09:16:36.293Z,36.3
2022-08-08T09:22:07.759Z,37.3
2022-08-08T09:26:49.807Z,37.9
2022-08-08T09:31:58.972Z,37.6
2022-08-08T09:38:02.030Z,39
2022-08-08T09:42:25.935Z,39.3
2022-08-08T09:48:05.386Z,39.9
2022-08-08T09:53:00.937Z,39.6
2022-08-08T09:57:18.996Z,40.3
2022-08-08T10:02:16.800Z,40
2022-08-08T10:07:16.849Z,40.2
2022-08-08T10:12:57.291Z,40.2
2022-08-08T10:18:17.138Z,39.8
2022-08-08T10:22:27.838Z,40.9
2022-08-08T10:27:36.563Z,40.8
2022-08-08T10:32:50.899Z,39.7
2022-08-08T10:37:44.441Z,40.2
2022-08-08T10:42:49.224Z,39.9
2022-08-08T10:47:58.952Z,39.8
2022-08-08T10:52:53.370Z,40.5
2022-08-08T10:57:57.692Z,40.5
2022-08-08T11:03:04.140Z,39.1
2022-08-08T11:08:49.932Z,38.7
2022-08-08T11:13:34.817Z,37.7
2022-08-08T11:18:20.106Z,39
2022-08-08T11:23:23.955Z,39.5
2022-08-08T11:28:31.886Z,40.1
2022-08-08T11:34:22.721Z,40.6
2022-08-08T11:38:57.236Z,39.9
2022-08-08T11:43:43.862Z,39.9
2022-08-08T11:48:46.956Z,40.3
2022-08-08T11:54:04.059Z,38.3
2022-08-08T11:59:00.858Z,36.2
2022-08-08T12:04:06.601Z,37.2
2022-08-08T12:09:16.969Z,36.5
2022-08-08T12:19:21.852Z,35.8
2022-08-08T12:24:31.036Z,35
2022-08-08T12:29:45.006Z,34.5
2022-08-08T12:34:37.908Z,34.5
2022-08-08T12:40:04.042Z,34
2022-08-08T12:44:51.589Z,33.6
2022-08-08T12:49:47.305Z,33.7
2022-08-08T12:54:55.250Z,33.3
2022-08-08T13:00:20.101Z,33
2022-08-08T13:06:04.500Z,32.7
2022-08-08T13:10:11.953Z,32.8
2022-08-08T13:15:09.182Z,32.6
2022-08-08T13:20:14.029Z,32.8
2022-08-08T13:25:24.031Z,32.8
2022-08-08T13:30:29.482Z,32.2
2022-08-08T13:35:45.856Z,32.1
2022-08-08T13:40:34.829Z,32
2022-08-08T13:51:24.756Z,31
2022-08-08T13:55:49.936Z,30.9
2022-08-08T14:00:56.217Z,30.6
2022-08-08T14:06:02.901Z,30.2
2022-08-08T14:11:11.673Z,30.2
2022-08-08T14:16:17.309Z,29.9
2022-08-08T14:21:23.280Z,29.9
2022-08-08T14:26:17.253Z,30.5
2022-08-08T14:32:12.888Z,30.8
2022-08-08T14:36:21.484Z,30.8
2022-08-08T14:41:56.962Z,31
2022-08-08T14:46:35.167Z,30.9
2022-08-08T14:51:55.191Z,30.6
2022-08-08T14:56:48.220Z,30.7
2022-08-08T15:01:55.034Z,30.3
2022-08-08T15:06:58.010Z,30.3
2022-08-08T15:12:06.174Z,30.1
2022-08-08T15:17:12.795Z,29.9
2022-08-08T15:22:27.546Z,29.9
2022-08-08T15:28:35.998Z,30.1
2022-08-08T15:32:33.568Z,30
2022-08-08T15:37:36.381Z,30
2022-08-08T15:42:41.814Z,28.7
2022-08-08T15:48:17.735Z,28.6
2022-08-08T15:52:56.925Z,28.4
2022-08-08T15:58:01.031Z,28.3
2022-08-08T16:03:05.458Z,28.2
2022-08-08T16:08:14.256Z,28
2022-08-08T16:13:49.378Z,27.8
2022-08-08T16:18:16.312Z,27.6
2022-08-08T16:23:31.649Z,27.6
2022-08-08T16:28:37.923Z,27.3
2022-08-08T16:33:41.611Z,27.3
2022-08-08T16:38:53.550Z,27.2
2022-08-08T16:43:54.239Z,27
2022-08-08T16:49:00.364Z,26.9
2022-08-08T16:55:57.561Z,26.8
2022-08-08T16:59:13.041Z,26.6
2022-08-08T17:04:19.583Z,26.6
2022-08-08T17:09:45.289Z,26.5
2022-08-08T17:14:36.148Z,26.5
2022-08-08T17:19:44.604Z,26.4
2022-08-08T17:24:41.048Z,26.4
2022-08-08T17:29:58.341Z,26.2
2022-08-08T17:36:21.897Z,26
2022-08-08T17:40:16.434Z,25.9
2022-08-08T17:45:00.715Z,25.9
2022-08-08T17:50:05.581Z,25.8
2022-08-08T17:56:09.651Z,25.7
2022-08-08T18:00:32.197Z,25.6
2022-08-08T18:05:29.378Z,25.6
2022-08-08T18:10:34.781Z,25.5
2022-08-08T18:15:32.628Z,25.5
2022-08-08T18:20:59.460Z,25.4
2022-08-08T18:25:43.487Z,25.4
2022-08-08T18:30:47.356Z,25.2
2022-08-08T18:35:52.666Z,25.2
2022-08-08T18:40:56.316Z,25.2
2022-08-08T18:46:59.331Z,25.1
2022-08-08T18:51:01.836Z,25
2022-08-08T18:56:06.245Z,24.8
2022-08-08T19:02:31.049Z,24.6
2022-08-08T19:06:15.118Z,24.5
2022-08-08T19:11:28.416Z,24.4
2022-08-08T19:16:33.975Z,24.3
2022-08-08T19:21:52.986Z,24.1
2022-08-08T19:26:39.784Z,24.1
2022-08-08T19:31:53.988Z,23.9
2022-08-08T19:36:49.270Z,23.7
2022-08-08T19:41:52.384Z,23.7
2022-08-08T19:46:57.850Z,23.6
2022-08-08T19:51:56.365Z,23.6
2022-08-08T19:57:07.711Z,23.5
2022-08-08T20:02:07.093Z,23.3
2022-08-08T20:08:32.705Z,23.1
2022-08-08T20:12:09.727Z,23
2022-08-08T20:17:06.249Z,22.9
2022-08-08T20:22:33.013Z,22.8
2022-08-08T20:27:55.084Z,22.6
2022-08-08T20:32:20.782Z,22.5
2022-08-08T20:37:20.297Z,22.3
2022-08-08T20:42:30.886Z,22.4
2022-08-08T20:47:28.807Z,22.4
2022-08-08T20:52:31.051Z,22.3
2022-08-08T20:57:47.624Z,22.2
2022-08-08T21:02:36.040Z,22.1
2022-08-08T21:08:50.516Z,21.9
2022-08-08T21:12:55.525Z,21.8
2022-08-08T21:17:58.849Z,21.8
2022-08-08T21:22:52.556Z,21.6
2022-08-08T21:28:35.646Z,21.6
2022-08-08T21:33:10.986Z,21.5
2022-08-08T21:38:18.128Z,21.5
2022-08-08T21:43:07.241Z,21.5
2022-08-08T21:48:44.500Z,21.5
2022-08-08T21:55:24.092Z,21.5
2022-08-08T21:58:18.228Z,21.5
2022-08-08T22:03:23.637Z,21.5
2022-08-08T22:08:26.554Z,21.1
2022-08-08T22:13:53.163Z,20.9
2022-08-08T22:18:37.538Z,21
2022-08-08T22:23:53.623Z,20.8
2022-08-08T22:30:04.125Z,21.1
2022-08-08T22:34:17.146Z,20.9
2022-08-08T22:39:08.994Z,20.8
2022-08-08T22:44:12.396Z,20.8
2022-08-08T22:49:25.730Z,20.9
2022-08-08T22:55:06.109Z,21
2022-08-08T23:04:35.683Z,21.3
2022-08-08T23:09:58.923Z,21.3
2022-08-08T23:14:26.731Z,21.4
2022-08-08T23:19:34.630Z,21.3
2022-08-08T23:24:48.977Z,21.2
2022-08-08T23:29:56.393Z,21.1
2022-08-08T23:35:00.790Z,21.1
2022-08-08T23:39:59.934Z,21
2022-08-08T23:44:54.765Z,21
2022-08-08T23:50:06.760Z,21
2022-08-08T23:55:24.068Z,20.7
